West Elkton, Ohio
Current Conditions -  °F | °C
As of 7:35 PM on Monday 24 Nov 2014 (Local Time) from KMWO Reporting Station
Scattered Clouds Scattered Clouds  
Wind Chill: 34°   Ceiling: Unl
Heat Index: 42°   Visibility: 10mi
Dew Point: 28°   Wind: 20mph
Humidity: 56%   Direction: 250°WSW
Pressure: 29.85"   Gusts: 28mph
Location:  39.59°N, 84.55°W
Report Text: KMWO 250035Z AUTO 25017G24KT 10SM SCT050 06/M02 A2985 RMK AO2 T00571025
Loading
Personal Weather Stations






























Interactive Weather Map New forecast layout! Learn more

10-Day Weather Forecast

Advertisements
Track Severe Weather on mobile